Terminal Aerodrome Forecast
Issued by NWS

Current Version | Previous Version | Graphics & Text | Print | Product List | Glossary On
Versions: 1 2 3 4 5 6 7 8 9 10 11 12 13 14 15 16 17 18
000
FTUS41 KILN 180500
TAFLUK
TAF
KLUK 180538Z 1806/1906 00000KT P6SM BKN250
     FM181400 25004KT P6SM SCT050 BKN150
     FM182100 30006KT P6SM BKN050
     FM190000 36003KT P6SM SCT050=

USA.gov is the U.S. government's official web portal to all federal, state and local government web resources and services.